sensor_id;sensor_type;location;lat;lon;timestamp;temperature;humidity
22878;DHT22;11606;45.404;12.148;2022-08-07T05:26:34;24.40;99.90
22878;DHT22;11606;45.404;12.148;2022-08-07T05:29:02;24.40;99.90
22878;DHT22;11606;45.404;12.148;2022-08-07T05:31:31;24.50;99.90
22878;DHT22;11606;45.404;12.148;2022-08-07T05:33:58;24.50;99.90
22878;DHT22;11606;45.404;12.148;2022-08-07T05:36:26;24.60;99.90
22878;DHT22;11606;45.404;12.148;2022-08-07T05:38:53;24.60;99.90
22878;DHT22;11606;45.404;12.148;2022-08-07T05:41:20;24.60;99.90
22878;DHT22;11606;45.404;12.148;2022-08-07T05:43:52;24.80;99.90
22878;DHT22;11606;45.404;12.148;2022-08-07T05:46:20;25.10;99.90
22878;DHT22;11606;45.404;12.148;2022-08-07T05:48:50;25.40;99.90
22878;DHT22;11606;45.404;12.148;2022-08-07T05:51:17;25.70;99.90
22878;DHT22;11606;45.404;12.148;2022-08-07T05:53:45;26.00;99.90
22878;DHT22;11606;45.404;12.148;2022-08-07T05:56:12;26.40;99.90
22878;DHT22;11606;45.404;12.148;2022-08-07T05:58:40;26.60;99.90
22878;DHT22;11606;45.404;12.148;2022-08-07T06:01:09;26.60;99.90
22878;DHT22;11606;45.404;12.148;2022-08-07T06:03:38;26.60;99.90
22878;DHT22;11606;45.404;12.148;2022-08-07T06:06:05;26.80;99.90
22878;DHT22;11606;45.404;12.148;2022-08-07T06:08:31;27.00;99.90
22878;DHT22;11606;45.404;12.148;2022-08-07T06:10:58;27.20;99.90
22878;DHT22;11606;45.404;12.148;2022-08-07T06:13:24;27.20;99.90
22878;DHT22;11606;45.404;12.148;2022-08-07T06:15:51;27.30;99.90
22878;DHT22;11606;45.404;12.148;2022-08-07T06:18:19;27.40;99.90
22878;DHT22;11606;45.404;12.148;2022-08-07T06:20:46;27.70;99.90
22878;DHT22;11606;45.404;12.148;2022-08-07T06:23:12;27.90;99.90
22878;DHT22;11606;45.404;12.148;2022-08-07T06:25:39;28.20;99.90
22878;DHT22;11606;45.404;12.148;2022-08-07T06:28:09;28.50;99.90
22878;DHT22;11606;45.404;12.148;2022-08-07T06:30:36;28.70;99.90
22878;DHT22;11606;45.404;12.148;2022-08-07T06:33:03;28.90;99.90
22878;DHT22;11606;45.404;12.148;2022-08-07T06:35:30;29.10;99.90
22878;DHT22;11606;45.404;12.148;2022-08-07T06:37:56;29.30;99.90
22878;DHT22;11606;45.404;12.148;2022-08-07T06:40:23;29.40;99.90
22878;DHT22;11606;45.404;12.148;2022-08-07T06:42:50;29.50;99.90
22878;DHT22;11606;45.404;12.148;2022-08-07T06:45:18;29.40;99.90
22878;DHT22;11606;45.404;12.148;2022-08-07T06:47:45;29.30;99.90
22878;DHT22;11606;45.404;12.148;2022-08-07T06:50:12;29.30;99.90
22878;DHT22;11606;45.404;12.148;2022-08-07T06:52:41;29.10;99.90
22878;DHT22;11606;45.404;12.148;2022-08-07T06:55:37;29.00;99.90
22878;DHT22;11606;45.404;12.148;2022-08-07T06:58:06;28.90;99.90
22878;DHT22;11606;45.404;12.148;2022-08-07T07:00:38;28.80;99.90
22878;DHT22;11606;45.404;12.148;2022-08-07T07:03:05;28.80;99.90
22878;DHT22;11606;45.404;12.148;2022-08-07T07:05:31;28.80;99.90
22878;DHT22;11606;45.404;12.148;2022-08-07T07:07:57;28.70;99.90
22878;DHT22;11606;45.404;12.148;2022-08-07T07:10:33;28.60;99.90
22878;DHT22;11606;45.404;12.148;2022-08-07T07:15:54;28.40;99.90
22878;DHT22;11606;45.404;12.148;2022-08-07T07:18:29;28.30;99.90
22878;DHT22;11606;45.404;12.148;2022-08-07T07:21:00;28.20;99.90
22878;DHT22;11606;45.404;12.148;2022-08-07T07:23:28;28.00;99.90
22878;DHT22;11606;45.404;12.148;2022-08-07T07:26:01;27.90;99.90
22878;DHT22;11606;45.404;12.148;2022-08-07T07:29:02;27.60;99.90
22878;DHT22;11606;45.404;12.148;2022-08-07T07:31:30;27.30;99.90
22878;DHT22;11606;45.404;12.148;2022-08-07T07:34:00;27.10;99.90
22878;DHT22;11606;45.404;12.148;2022-08-07T07:36:29;27.00;99.90
22878;DHT22;11606;45.404;12.148;2022-08-07T07:38:57;26.90;99.90
22878;DHT22;11606;45.404;12.148;2022-08-07T07:41:25;26.70;99.90
22878;DHT22;11606;45.404;12.148;2022-08-07T07:43:52;26.60;99.90
22878;DHT22;11606;45.404;12.148;2022-08-07T07:46:18;26.50;99.90
22878;DHT22;11606;45.404;12.148;2022-08-07T07:48:49;26.40;99.90
22878;DHT22;11606;45.404;12.148;2022-08-07T07:51:16;26.30;99.90
22878;DHT22;11606;45.404;12.148;2022-08-07T07:53:44;26.30;99.90
22878;DHT22;11606;45.404;12.148;2022-08-07T07:56:12;26.30;99.90
22878;DHT22;11606;45.404;12.148;2022-08-07T07:58:38;26.40;99.90
22878;DHT22;11606;45.404;12.148;2022-08-07T08:01:06;26.40;99.90
22878;DHT22;11606;45.404;12.148;2022-08-07T08:03:34;26.50;99.90
22878;DHT22;11606;45.404;12.148;2022-08-07T08:06:01;26.50;99.90
22878;DHT22;11606;45.404;12.148;2022-08-07T08:08:29;26.60;99.90
22878;DHT22;11606;45.404;12.148;2022-08-07T08:10:59;26.50;99.90
22878;DHT22;11606;45.404;12.148;2022-08-07T08:13:26;26.40;99.90
22878;DHT22;11606;45.404;12.148;2022-08-07T08:15:54;26.20;99.90
22878;DHT22;11606;45.404;12.148;2022-08-07T08:18:23;26.10;99.90
22878;DHT22;11606;45.404;12.148;2022-08-07T08:20:49;25.90;99.90
22878;DHT22;11606;45.404;12.148;2022-08-07T08:23:18;25.90;99.90
22878;DHT22;11606;45.404;12.148;2022-08-07T08:26:05;25.90;99.90
22878;DHT22;11606;45.404;12.148;2022-08-07T08:28:52;25.80;99.90
22878;DHT22;11606;45.404;12.148;2022-08-07T08:31:22;25.80;99.90
22878;DHT22;11606;45.404;12.148;2022-08-07T08:33:52;25.80;99.90
22878;DHT22;11606;45.404;12.148;2022-08-07T08:36:23;25.90;99.90
22878;DHT22;11606;45.404;12.148;2022-08-07T08:38:50;25.90;99.90
22878;DHT22;11606;45.404;12.148;2022-08-07T08:41:33;26.00;99.90
22878;DHT22;11606;45.404;12.148;2022-08-07T08:46:55;26.30;99.90
22878;DHT22;11606;45.404;12.148;2022-08-07T08:49:52;26.30;99.90
22878;DHT22;11606;45.404;12.148;2022-08-07T08:52:25;26.40;99.90
22878;DHT22;11606;45.404;12.148;2022-08-07T08:55:00;26.40;99.90
22878;DHT22;11606;45.404;12.148;2022-08-07T08:57:57;26.50;99.90
22878;DHT22;11606;45.404;12.148;2022-08-07T09:00:31;26.60;99.90
22878;DHT22;11606;45.404;12.148;2022-08-07T09:03:18;26.60;99.90
22878;DHT22;11606;45.404;12.148;2022-08-07T09:14:00;26.90;99.90
22878;DHT22;11606;45.404;12.148;2022-08-07T09:20:04;27.30;99.90
22878;DHT22;11606;45.404;12.148;2022-08-07T09:22:53;27.50;99.90
22878;DHT22;11606;45.404;12.148;2022-08-07T09:28:28;27.80;99.90
22878;DHT22;11606;45.404;12.148;2022-08-07T09:31:06;28.00;99.90
22878;DHT22;11606;45.404;12.148;2022-08-07T09:33:47;28.10;99.90
22878;DHT22;11606;45.404;12.148;2022-08-07T09:39:18;28.20;99.90
22878;DHT22;11606;45.404;12.148;2022-08-07T09:49:40;28.50;99.90
22878;DHT22;11606;45.404;12.148;2022-08-07T09:55:03;28.60;99.90
22878;DHT22;11606;45.404;12.148;2022-08-07T10:06:27;28.70;99.90
22878;DHT22;11606;45.404;12.148;2022-08-07T10:14:41;28.80;99.90
22878;DHT22;11606;45.404;12.148;2022-08-07T10:20:18;29.00;99.90
22878;DHT22;11606;45.404;12.148;2022-08-07T10:38:56;29.00;99.90
22878;DHT22;11606;45.404;12.148;2022-08-07T10:46:28;28.60;99.90
22878;DHT22;11606;45.404;12.148;2022-08-07T10:51:56;28.50;99.90
22878;DHT22;11606;45.404;12.148;2022-08-07T10:54:58;28.40;99.90
22878;DHT22;11606;45.404;12.148;2022-08-07T11:00:14;28.40;99.90
22878;DHT22;11606;45.404;12.148;2022-08-07T11:03:06;28.30;99.90
22878;DHT22;11606;45.404;12.148;2022-08-07T11:06:23;28.20;99.90
22878;DHT22;11606;45.404;12.148;2022-08-07T11:08:57;27.90;99.90
22878;DHT22;11606;45.404;12.148;2022-08-07T11:14:09;27.60;99.90
22878;DHT22;11606;45.404;12.148;2022-08-07T11:19:58;27.60;99.90
22878;DHT22;11606;45.404;12.148;2022-08-07T11:22:37;27.50;99.90
22878;DHT22;11606;45.404;12.148;2022-08-07T11:30:56;27.40;99.90
22878;DHT22;11606;45.404;12.148;2022-08-07T11:41:38;27.20;99.90
22878;DHT22;11606;45.404;12.148;2022-08-07T11:47:19;27.10;99.90
22878;DHT22;11606;45.404;12.148;2022-08-07T11:50:02;27.00;99.90
22878;DHT22;11606;45.404;12.148;2022-08-07T11:52:54;27.00;99.90
22878;DHT22;11606;45.404;12.148;2022-08-07T12:01:00;26.80;99.90
22878;DHT22;11606;45.404;12.148;2022-08-07T12:03:52;26.80;99.90
22878;DHT22;11606;45.404;12.148;2022-08-07T12:06:42;26.80;99.90
22878;DHT22;11606;45.404;12.148;2022-08-07T12:14:23;27.00;99.90
22878;DHT22;11606;45.404;12.148;2022-08-07T12:16:58;27.00;99.90
22878;DHT22;11606;45.404;12.148;2022-08-07T12:22:22;27.10;99.90
22878;DHT22;11606;45.404;12.148;2022-08-07T12:24:58;27.10;99.90
22878;DHT22;11606;45.404;12.148;2022-08-07T12:27:57;27.10;99.90
22878;DHT22;11606;45.404;12.148;2022-08-07T12:30:29;27.10;99.90
22878;DHT22;11606;45.404;12.148;2022-08-07T12:33:02;27.10;99.90
22878;DHT22;11606;45.404;12.148;2022-08-07T12:35:31;27.10;99.90
22878;DHT22;11606;45.404;12.148;2022-08-07T12:37:59;27.10;99.90
22878;DHT22;11606;45.404;12.148;2022-08-07T12:40:30;27.10;99.90
22878;DHT22;11606;45.404;12.148;2022-08-07T12:43:00;27.10;99.90
22878;DHT22;11606;45.404;12.148;2022-08-07T12:45:34;27.20;99.90
22878;DHT22;11606;45.404;12.148;2022-08-07T12:48:15;27.30;99.90
22878;DHT22;11606;45.404;12.148;2022-08-07T12:51:16;27.30;99.90
22878;DHT22;11606;45.404;12.148;2022-08-07T12:53:52;27.40;99.90
22878;DHT22;11606;45.404;12.148;2022-08-07T12:56:32;27.50;99.90
22878;DHT22;11606;45.404;12.148;2022-08-07T12:59:02;27.50;99.90
22878;DHT22;11606;45.404;12.148;2022-08-07T13:04:50;27.70;99.90
22878;DHT22;11606;45.404;12.148;2022-08-07T13:16:04;28.50;99.90
22878;DHT22;11606;45.404;12.148;2022-08-07T13:21:16;28.70;99.90
22878;DHT22;11606;45.404;12.148;2022-08-07T13:24:09;28.80;99.90
22878;DHT22;11606;45.404;12.148;2022-08-07T13:26:53;28.90;99.90
22878;DHT22;11606;45.404;12.148;2022-08-07T13:29:33;29.00;99.90
22878;DHT22;11606;45.404;12.148;2022-08-07T13:32:03;29.00;99.90
22878;DHT22;11606;45.404;12.148;2022-08-07T13:35:13;29.00;99.90
22878;DHT22;11606;45.404;12.148;2022-08-07T13:40:16;29.10;99.90
22878;DHT22;11606;45.404;12.148;2022-08-07T13:42:47;29.10;99.90
22878;DHT22;11606;45.404;12.148;2022-08-07T13:45:14;29.10;99.90
22878;DHT22;11606;45.404;12.148;2022-08-07T13:47:41;29.20;99.90
22878;DHT22;11606;45.404;12.148;2022-08-07T13:50:09;29.20;99.90
22878;DHT22;11606;45.404;12.148;2022-08-07T13:52:40;29.20;99.90
22878;DHT22;11606;45.404;12.148;2022-08-07T13:55:14;29.20;99.90
22878;DHT22;11606;45.404;12.148;2022-08-07T13:57:43;29.20;99.90
22878;DHT22;11606;45.404;12.148;2022-08-07T14:00:10;29.30;99.90
22878;DHT22;11606;45.404;12.148;2022-08-07T14:02:37;29.30;99.90
22878;DHT22;11606;45.404;12.148;2022-08-07T14:05:10;29.30;99.90
22878;DHT22;11606;45.404;12.148;2022-08-07T14:07:48;29.20;99.90
22878;DHT22;11606;45.404;12.148;2022-08-07T14:10:14;29.30;99.90
22878;DHT22;11606;45.404;12.148;2022-08-07T14:12:51;29.20;99.90
22878;DHT22;11606;45.404;12.148;2022-08-07T14:15:41;29.20;99.90
22878;DHT22;11606;45.404;12.148;2022-08-07T14:18:14;29.30;99.90
22878;DHT22;11606;45.404;12.148;2022-08-07T14:20:43;29.30;99.90
22878;DHT22;11606;45.404;12.148;2022-08-07T14:23:17;29.30;99.90
22878;DHT22;11606;45.404;12.148;2022-08-07T14:25:46;29.30;99.90
22878;DHT22;11606;45.404;12.148;2022-08-07T14:28:14;29.30;99.90
22878;DHT22;11606;45.404;12.148;2022-08-07T14:30:46;29.30;99.90
22878;DHT22;11606;45.404;12.148;2022-08-07T14:33:14;29.40;99.90
22878;DHT22;11606;45.404;12.148;2022-08-07T14:35:41;29.30;99.90
22878;DHT22;11606;45.404;12.148;2022-08-07T14:38:08;29.30;99.90
22878;DHT22;11606;45.404;12.148;2022-08-07T14:40:35;29.30;99.90
22878;DHT22;11606;45.404;12.148;2022-08-07T14:43:11;29.40;99.90
22878;DHT22;11606;45.404;12.148;2022-08-07T14:45:50;29.40;99.90
22878;DHT22;11606;45.404;12.148;2022-08-07T14:48:32;29.50;99.90
22878;DHT22;11606;45.404;12.148;2022-08-07T14:51:25;29.50;99.90
22878;DHT22;11606;45.404;12.148;2022-08-07T14:53:57;29.60;99.90
22878;DHT22;11606;45.404;12.148;2022-08-07T14:56:27;29.70;99.90
22878;DHT22;11606;45.404;12.148;2022-08-07T14:58:56;29.70;99.90
22878;DHT22;11606;45.404;12.148;2022-08-07T15:01:27;29.80;99.90
22878;DHT22;11606;45.404;12.148;2022-08-07T15:03:59;29.80;99.90
22878;DHT22;11606;45.404;12.148;2022-08-07T15:06:30;29.80;99.90
22878;DHT22;11606;45.404;12.148;2022-08-07T15:09:10;29.90;99.90
22878;DHT22;11606;45.404;12.148;2022-08-07T15:11:52;29.90;99.90
22878;DHT22;11606;45.404;12.148;2022-08-07T15:14:23;29.90;99.90
22878;DHT22;11606;45.404;12.148;2022-08-07T15:17:13;29.90;99.90
22878;DHT22;11606;45.404;12.148;2022-08-07T15:19:52;29.80;99.90
22878;DHT22;11606;45.404;12.148;2022-08-07T15:22:45;29.80;99.90
22878;DHT22;11606;45.404;12.148;2022-08-07T15:25:15;29.80;99.90
22878;DHT22;11606;45.404;12.148;2022-08-07T15:27:44;29.70;99.90
22878;DHT22;11606;45.404;12.148;2022-08-07T15:30:12;29.70;99.90
22878;DHT22;11606;45.404;12.148;2022-08-07T15:32:41;29.60;99.90
22878;DHT22;11606;45.404;12.148;2022-08-07T15:35:17;29.60;99.90
22878;DHT22;11606;45.404;12.148;2022-08-07T15:37:49;29.60;99.90
22878;DHT22;11606;45.404;12.148;2022-08-07T15:40:16;29.60;99.90
22878;DHT22;11606;45.404;12.148;2022-08-07T15:45:33;29.60;99.90
22878;DHT22;11606;45.404;12.148;2022-08-07T15:48:28;29.60;99.90
22878;DHT22;11606;45.404;12.148;2022-08-07T15:50:59;29.60;99.90
22878;DHT22;11606;45.404;12.148;2022-08-07T15:53:37;29.60;99.90
22878;DHT22;11606;45.404;12.148;2022-08-07T15:56:06;29.70;99.90
22878;DHT22;11606;45.404;12.148;2022-08-07T15:58:58;29.70;99.90
22878;DHT22;11606;45.404;12.148;2022-08-07T16:03:59;29.70;99.90
22878;DHT22;11606;45.404;12.148;2022-08-07T16:06:35;29.60;99.90
22878;DHT22;11606;45.404;12.148;2022-08-07T16:26:16;29.70;99.90
22878;DHT22;11606;45.404;12.148;2022-08-07T16:32:07;29.70;99.90
22878;DHT22;11606;45.404;12.148;2022-08-07T16:34:46;29.70;99.90
22878;DHT22;11606;45.404;12.148;2022-08-07T16:45:47;29.70;99.90
22878;DHT22;11606;45.404;12.148;2022-08-07T16:56:54;29.60;99.90
22878;DHT22;11606;45.404;12.148;2022-08-07T17:08:01;29.40;99.90
22878;DHT22;11606;45.404;12.148;2022-08-07T17:19:33;29.30;99.90
22878;DHT22;11606;45.404;12.148;2022-08-07T17:22:02;29.30;99.90
22878;DHT22;11606;45.404;12.148;2022-08-07T17:27:47;29.30;99.90
22878;DHT22;11606;45.404;12.148;2022-08-07T17:30:15;29.30;99.90
22878;DHT22;11606;45.404;12.148;2022-08-07T23:27:15;25.50;99.90
22878;DHT22;11606;45.404;12.148;2022-08-07T23:30:11;25.50;99.90
22878;DHT22;11606;45.404;12.148;2022-08-07T23:35:52;25.50;99.90
22878;DHT22;11606;45.404;12.148;2022-08-07T23:49:09;25.30;99.90
22878;DHT22;11606;45.404;12.148;2022-08-07T23:51:42;25.30;99.90
22878;DHT22;11606;45.404;12.148;2022-08-07T23:59:35;25.20;99.90
